createdAt,value
2018-07-16T00:02:21.797Z,97898.86
2018-07-16T00:04:53.487Z,97904.20
2018-07-16T00:07:25.319Z,97900.52
2018-07-16T00:09:56.941Z,97903.19
2018-07-16T00:12:29.246Z,97906.03
2018-07-16T00:15:00.937Z,97914.86
2018-07-16T00:17:32.879Z,97916.38
2018-07-16T00:20:04.922Z,97919.87
2018-07-16T00:22:36.588Z,97927.55
2018-07-16T00:25:08.590Z,97935.03
2018-07-16T00:27:40.160Z,97933.52
2018-07-16T00:30:11.827Z,97933.52
2018-07-16T00:32:43.472Z,97935.36
2018-07-16T00:35:15.039Z,97942.20
2018-07-16T00:37:46.852Z,97945.19
2018-07-16T00:40:18.532Z,97944.55
2018-07-16T00:42:50.260Z,97948.36
2018-07-16T00:45:22.137Z,97953.88
2018-07-16T00:47:54.013Z,97959.02
2018-07-16T00:50:25.684Z,97960.54
2018-07-16T00:52:57.474Z,97966.52
2018-07-16T00:55:28.971Z,97956.55
2018-07-16T00:58:00.664Z,97950.89
2018-07-16T01:00:32.251Z,97958.57
2018-07-16T01:03:03.966Z,97963.61
2018-07-16T01:05:35.742Z,97959.11
2018-07-16T01:08:07.551Z,97959.61
2018-07-16T01:10:39.241Z,97952.22
2018-07-16T01:13:11.035Z,97956.95
2018-07-16T01:15:42.706Z,97950.06
2018-07-16T01:18:14.216Z,97951.40
2018-07-16T01:20:45.871Z,97950.39
2018-07-16T01:23:17.699Z,97956.44
2018-07-16T01:25:49.590Z,97950.06
2018-07-16T01:28:21.297Z,97945.97
2018-07-16T01:30:52.954Z,97946.39
2018-07-16T01:33:24.784Z,97939.62
2018-07-16T01:35:57.862Z,97939.91
2018-07-16T01:38:29.533Z,97939.62
2018-07-16T01:41:01.103Z,97936.28
2018-07-16T01:43:32.911Z,97937.89
2018-07-16T01:46:04.729Z,97936.96
2018-07-16T01:48:36.510Z,97934.30
2018-07-16T01:51:08.225Z,97932.13
2018-07-16T01:53:39.938Z,97930.95
2018-07-16T01:56:11.516Z,97931.62
2018-07-16T01:58:43.341Z,97928.97
2018-07-16T02:01:14.804Z,97924.98
2018-07-16T02:03:46.658Z,97927.41
2018-07-16T02:06:18.320Z,97924.97
2018-07-16T02:08:50.202Z,97919.31
2018-07-16T02:11:21.801Z,97916.14
2018-07-16T02:13:53.261Z,97914.59
2018-07-16T02:16:24.862Z,97905.58
2018-07-16T02:18:56.609Z,97910.91
2018-07-16T02:21:28.205Z,97912.89
2018-07-16T02:24:00.122Z,97915.92
2018-07-16T02:26:31.775Z,97925.25
2018-07-16T02:29:03.743Z,97924.88
2018-07-16T02:31:35.512Z,97925.11
2018-07-16T02:34:07.368Z,97926.21
2018-07-16T02:36:39.852Z,97930.58
2018-07-16T02:39:11.750Z,97943.41
2018-07-16T02:41:45.893Z,97949.51
2018-07-16T02:44:17.649Z,97950.89
2018-07-16T02:46:49.462Z,97962.11
2018-07-16T02:49:21.143Z,97962.61
2018-07-16T02:51:52.779Z,97980.58
2018-07-16T02:54:25.913Z,97978.73
2018-07-16T02:56:57.588Z,97979.16
2018-07-16T02:59:29.188Z,97980.17
2018-07-16T03:02:00.825Z,97980.39
2018-07-16T03:04:32.464Z,97985.22
2018-07-16T03:07:04.161Z,97988.07
2018-07-16T03:09:35.715Z,97997.72
2018-07-16T03:12:07.259Z,97995.42
2018-07-16T03:14:38.660Z,98000.58
2018-07-16T03:17:10.420Z,98002.23
2018-07-16T03:19:42.167Z,98011.05
2018-07-16T03:22:13.654Z,98008.17
2018-07-16T03:24:45.518Z,98007.47
2018-07-16T03:27:17.058Z,98005.45
2018-07-16T03:29:48.636Z,98008.11
2018-07-16T03:32:20.265Z,98005.69
2018-07-16T03:34:51.748Z,98006.88
2018-07-16T03:37:23.668Z,98007.02
2018-07-16T03:39:57.743Z,97998.96
2018-07-16T03:42:29.513Z,98001.63
2018-07-16T03:45:01.327Z,97997.63
2018-07-16T03:47:32.882Z,98000.30
2018-07-16T03:50:04.690Z,97998.00
2018-07-16T03:52:36.240Z,97997.41
2018-07-16T03:55:08.050Z,98000.72
2018-07-16T03:57:39.454Z,97996.20
2018-07-16T04:00:11.400Z,97991.06
2018-07-16T04:02:43.207Z,97990.05
2018-07-16T04:05:14.794Z,97988.52
2018-07-16T04:07:46.306Z,97986.69
2018-07-16T04:10:18.079Z,97990.17
2018-07-16T04:12:49.784Z,97977.71
2018-07-16T04:15:21.827Z,97975.10
2018-07-16T04:17:53.746Z,97975.05
2018-07-16T04:20:25.370Z,97970.31
2018-07-16T04:22:57.003Z,97969.45
2018-07-16T04:25:28.839Z,97971.05
2018-07-16T04:28:00.549Z,97971.36
2018-07-16T04:30:32.205Z,97969.27
2018-07-16T04:33:04.147Z,97964.31
2018-07-16T04:35:35.929Z,97969.08
2018-07-16T04:38:08.088Z,97971.94
2018-07-16T04:40:39.780Z,97966.17
2018-07-16T04:43:11.506Z,97955.92
2018-07-16T04:45:43.368Z,97958.28
2018-07-16T04:48:14.782Z,97956.75
2018-07-16T04:50:46.660Z,97963.04
2018-07-16T04:53:18.328Z,97954.31
2018-07-16T04:55:50.298Z,97951.61
2018-07-16T04:58:21.994Z,97948.76
2018-07-16T05:00:53.799Z,97959.84
2018-07-16T05:03:25.484Z,97951.33
2018-07-16T05:05:57.206Z,97945.36
2018-07-16T05:08:28.797Z,97942.31
2018-07-16T05:11:00.497Z,97942.02
2018-07-16T05:13:32.245Z,97940.69
2018-07-16T05:16:03.885Z,97944.63
2018-07-16T05:18:35.560Z,97952.53
2018-07-16T05:21:07.366Z,97948.72
2018-07-16T05:23:39.039Z,97942.87
2018-07-16T05:26:10.842Z,97944.41
2018-07-16T05:28:42.429Z,97945.80
2018-07-16T05:31:14.012Z,97940.34
2018-07-16T05:33:45.850Z,97947.20
2018-07-16T05:36:17.488Z,97944.47
2018-07-16T05:38:49.299Z,97937.48
2018-07-16T05:41:20.771Z,97941.16
2018-07-16T05:43:52.396Z,97938.91
2018-07-16T05:46:24.195Z,97938.02
2018-07-16T05:48:55.789Z,97936.27
2018-07-16T05:51:27.366Z,97934.23
2018-07-16T05:54:00.317Z,97927.23
2018-07-16T05:56:32.247Z,97933.91
2018-07-16T05:59:04.032Z,97930.73
2018-07-16T06:01:35.802Z,97935.17
2018-07-16T06:04:07.575Z,97933.91
2018-07-16T06:06:39.273Z,97931.48
2018-07-16T06:09:11.171Z,97929.84
2018-07-16T06:11:43.215Z,97929.34
2018-07-16T06:14:15.332Z,97926.73
2018-07-16T06:16:47.161Z,97925.33
2018-07-16T06:19:18.938Z,97913.41
2018-07-16T06:21:51.419Z,97908.00
2018-07-16T06:24:23.276Z,97907.58
2018-07-16T06:26:55.138Z,97910.88
2018-07-16T06:29:26.657Z,97904.04
2018-07-16T06:31:58.589Z,97904.13
2018-07-16T06:34:30.119Z,97902.59
2018-07-16T06:37:02.209Z,97901.07
2018-07-16T06:39:34.000Z,97901.70
2018-07-16T06:42:05.733Z,97894.01
2018-07-16T06:44:37.556Z,97896.88
2018-07-16T06:47:09.539Z,97888.56
2018-07-16T06:49:41.101Z,97887.53
2018-07-16T06:52:13.211Z,97882.20
2018-07-16T06:54:44.987Z,97880.56
2018-07-16T06:57:17.093Z,97879.66
2018-07-16T06:59:48.755Z,97868.03
2018-07-16T07:02:20.754Z,97873.27
2018-07-16T07:04:52.581Z,97870.20
2018-07-16T07:07:24.385Z,97866.59
2018-07-16T07:09:56.272Z,97861.55
2018-07-16T07:12:28.215Z,97866.50
2018-07-16T07:15:00.155Z,97861.79
2018-07-16T07:17:31.956Z,97861.28
2018-07-16T07:20:03.980Z,97850.59
2018-07-16T07:22:35.921Z,97853.66
2018-07-16T07:25:07.987Z,97850.80
2018-07-16T07:27:39.910Z,97850.68
2018-07-16T07:30:11.830Z,97849.97
2018-07-16T07:32:43.935Z,97839.60
2018-07-16T07:35:15.883Z,97843.69
2018-07-16T07:37:47.806Z,97836.81
2018-07-16T07:40:19.560Z,97832.72
2018-07-16T07:42:51.299Z,97822.86
2018-07-16T07:45:22.757Z,97823.69
2018-07-16T07:47:54.694Z,97821.30
2018-07-16T07:50:26.754Z,97813.00
2018-07-16T07:52:58.591Z,97809.27
2018-07-16T07:55:30.652Z,97793.87
2018-07-16T07:58:02.512Z,97789.06
2018-07-16T08:00:34.416Z,97793.06
2018-07-16T08:03:06.146Z,97785.47
2018-07-16T08:05:37.792Z,97773.66
2018-07-16T08:08:09.618Z,97771.29
2018-07-16T08:10:41.403Z,97761.81
2018-07-16T08:13:13.176Z,97755.24
2018-07-16T08:15:44.855Z,97751.13
2018-07-16T08:18:16.548Z,97743.22
2018-07-16T08:20:48.341Z,97738.67
2018-07-16T08:23:20.507Z,97730.24
2018-07-16T08:25:52.322Z,97722.33
2018-07-16T08:28:24.525Z,97726.86
2018-07-16T08:30:56.625Z,97721.18
2018-07-16T08:33:28.662Z,97718.95
2018-07-16T08:36:01.619Z,97728.70
2018-07-16T08:38:35.712Z,97730.99
2018-07-16T08:41:09.844Z,97729.66
2018-07-16T08:43:43.844Z,97720.30
2018-07-16T08:46:16.022Z,97716.61
2018-07-16T08:48:47.949Z,97706.50
2018-07-16T08:51:20.056Z,97705.91
2018-07-16T08:53:53.145Z,97707.84
2018-07-16T08:56:26.384Z,97700.57
2018-07-16T08:58:58.276Z,97696.02
2018-07-16T09:01:30.202Z,97697.45
2018-07-16T09:04:01.936Z,97703.62
2018-07-16T09:06:33.714Z,97700.44
2018-07-16T09:09:06.642Z,97698.28
2018-07-16T09:11:38.575Z,97693.45
2018-07-16T09:14:10.255Z,97692.55
2018-07-16T09:16:42.270Z,97692.12
2018-07-16T09:19:16.626Z,97689.23
2018-07-16T09:21:51.028Z,97681.84
2018-07-16T09:24:25.542Z,97669.70
2018-07-16T09:26:59.899Z,97677.01
2018-07-16T09:29:34.487Z,97668.66
2018-07-16T09:32:08.806Z,97662.28
2018-07-16T09:34:44.159Z,97667.42
2018-07-16T09:37:20.497Z,97662.28
2018-07-16T09:39:55.410Z,97668.76
2018-07-16T09:42:29.616Z,97657.55
2018-07-16T09:45:01.838Z,97660.43
2018-07-16T09:47:33.831Z,97656.22
2018-07-16T09:50:05.873Z,97657.00
2018-07-16T09:52:37.583Z,97657.31
2018-07-16T09:55:09.447Z,97664.30
2018-07-16T09:57:41.124Z,97659.41
2018-07-16T10:00:13.200Z,97663.48
2018-07-16T10:02:44.731Z,97650.12
2018-07-16T10:05:16.934Z,97654.44
2018-07-16T10:07:48.726Z,97651.25
2018-07-16T10:10:20.648Z,97651.86
2018-07-16T10:12:52.358Z,97649.57
2018-07-16T10:15:24.246Z,97640.52
2018-07-16T10:17:56.144Z,97634.36
2018-07-16T10:20:29.515Z,97637.33
2018-07-16T10:23:01.373Z,97623.97
2018-07-16T10:25:33.952Z,97627.26
2018-07-16T10:28:06.969Z,97619.55
2018-07-16T10:30:40.580Z,97615.95
2018-07-16T10:33:14.596Z,97610.09
2018-07-16T10:35:48.685Z,97611.22
2018-07-16T10:38:22.082Z,97611.22
2018-07-16T10:40:56.394Z,97615.02
2018-07-16T10:43:30.397Z,97613.58
2018-07-16T10:46:05.799Z,97608.61
2018-07-16T10:48:39.372Z,97611.01
2018-07-16T10:51:11.305Z,97618.20
2018-07-16T10:53:43.534Z,97618.48
2018-07-16T10:56:15.362Z,97622.80
2018-07-16T10:58:47.224Z,97624.45
2018-07-16T11:01:18.912Z,97620.64
2018-07-16T11:03:50.612Z,97618.89
2018-07-16T11:06:24.572Z,97616.73
2018-07-16T11:08:57.293Z,97618.58
2018-07-16T11:11:29.295Z,97613.34
2018-07-16T11:14:01.116Z,97622.98
2018-07-16T11:16:32.650Z,97629.37
2018-07-16T11:19:04.178Z,97626.08
2018-07-16T11:21:36.606Z,97628.23
2018-07-16T11:24:08.485Z,97623.50
2018-07-16T11:26:40.155Z,97612.50
2018-07-16T11:29:12.607Z,97613.19
2018-07-16T11:31:44.340Z,97600.63
2018-07-16T11:34:16.168Z,97603.62
2018-07-16T11:36:48.173Z,97604.64
2018-07-16T11:39:19.911Z,97603.92
2018-07-16T11:41:51.839Z,97602.16
2018-07-16T11:44:23.748Z,97609.88
2018-07-16T11:46:55.673Z,97599.05
2018-07-16T11:49:27.607Z,97599.05
2018-07-16T11:51:59.889Z,97596.37
2018-07-16T11:54:33.435Z,97597.50
2018-07-16T11:57:05.844Z,97592.36
2018-07-16T11:59:38.067Z,97598.02
2018-07-16T12:02:09.737Z,97598.63
2018-07-16T12:04:41.560Z,97593.58
2018-07-16T12:07:13.597Z,97589.27
2018-07-16T12:09:45.116Z,97586.07
2018-07-16T12:12:16.950Z,97587.17
2018-07-16T12:14:48.442Z,97580.20
2018-07-16T12:17:20.336Z,97583.25
2018-07-16T12:19:52.037Z,97582.01
2018-07-16T12:22:24.286Z,97585.72
2018-07-16T12:24:55.790Z,97582.52
2018-07-16T12:27:27.675Z,97586.02
2018-07-16T12:29:59.537Z,97578.00
2018-07-16T12:32:31.596Z,97581.25
2018-07-16T12:35:03.283Z,97582.59
2018-07-16T12:37:35.174Z,97594.94
2018-07-16T12:40:06.977Z,97593.59
2018-07-16T12:42:38.827Z,97593.59
2018-07-16T12:45:10.672Z,97596.58
2018-07-16T12:47:42.521Z,97602.38
2018-07-16T12:50:14.198Z,97605.94
2018-07-16T12:52:46.311Z,97615.30
2018-07-16T12:55:18.259Z,97621.38
2018-07-16T12:57:50.021Z,97622.71
2018-07-16T13:00:21.803Z,97637.73
2018-07-16T13:02:53.679Z,97643.48
2018-07-16T13:05:25.495Z,97645.23
2018-07-16T13:07:57.294Z,97644.72
2018-07-16T13:10:28.905Z,97654.91
2018-07-16T13:13:00.858Z,97662.00
2018-07-16T13:15:32.758Z,97667.05
2018-07-16T13:18:04.364Z,97670.03
2018-07-16T13:20:36.009Z,97673.73
2018-07-16T13:23:08.742Z,97670.03
2018-07-16T13:25:40.567Z,97674.55
2018-07-16T13:28:12.563Z,97677.23
2018-07-16T13:30:44.077Z,97672.70
2018-07-16T13:33:15.949Z,97670.03
2018-07-16T13:35:47.954Z,97670.55
2018-07-16T13:38:19.929Z,97672.40
2018-07-16T13:40:51.838Z,97660.66
2018-07-16T13:43:24.331Z,97673.53
2018-07-16T13:45:56.128Z,97677.30
2018-07-16T13:48:27.740Z,97681.31
2018-07-16T13:50:59.326Z,97679.66
2018-07-16T13:53:30.934Z,97675.96
2018-07-16T13:56:02.958Z,97682.34
2018-07-16T13:58:34.624Z,97683.41
2018-07-16T14:01:06.443Z,97683.67
2018-07-16T14:03:38.391Z,97691.50
2018-07-16T14:06:10.155Z,97690.98
2018-07-16T14:08:41.960Z,97701.69
2018-07-16T14:11:13.536Z,97712.08
2018-07-16T14:13:45.203Z,97711.05
2018-07-16T14:16:17.012Z,97713.41
2018-07-16T14:18:48.892Z,97716.09
2018-07-16T14:21:20.744Z,97713.41
2018-07-16T14:23:53.004Z,97712.83
2018-07-16T14:26:24.500Z,97724.94
2018-07-16T14:28:55.886Z,97726.80
2018-07-16T14:31:27.544Z,97732.76
2018-07-16T14:33:59.356Z,97741.91
2018-07-16T14:36:30.965Z,97746.44
2018-07-16T14:39:02.725Z,97753.13
2018-07-16T14:41:34.392Z,97763.62
2018-07-16T14:44:06.213Z,97758.03
2018-07-16T14:46:37.930Z,97763.69
2018-07-16T14:49:09.740Z,97772.75
2018-07-16T14:51:41.306Z,97774.84
2018-07-16T14:54:13.072Z,97783.45
2018-07-16T14:56:44.525Z,97787.64
2018-07-16T14:59:16.321Z,97791.75
2018-07-16T15:01:47.772Z,97795.53
2018-07-16T15:04:19.665Z,97807.67
2018-07-16T15:06:51.310Z,97810.97
2018-07-16T15:09:23.190Z,97810.66
2018-07-16T15:11:54.841Z,97817.34
2018-07-16T15:14:27.215Z,97821.36
2018-07-16T15:16:59.331Z,97820.64
2018-07-16T15:19:31.304Z,97821.97
2018-07-16T15:22:02.940Z,97824.66
2018-07-16T15:24:34.791Z,97819.88
2018-07-16T15:27:06.631Z,97820.40
2018-07-16T15:29:38.803Z,97825.85
2018-07-16T15:32:11.072Z,97826.58
2018-07-16T15:34:43.114Z,97834.91
2018-07-16T15:37:14.877Z,97831.92
2018-07-16T15:39:46.664Z,97833.27
2018-07-16T15:42:18.486Z,97836.77
2018-07-16T15:44:50.230Z,97830.28
2018-07-16T15:47:21.939Z,97828.66
2018-07-16T15:49:53.785Z,97826.58
2018-07-16T15:52:25.646Z,97835.94
2018-07-16T15:54:57.616Z,97838.30
2018-07-16T15:57:29.435Z,97853.33
2018-07-16T16:00:01.092Z,97851.27
2018-07-16T16:02:32.947Z,97857.03
2018-07-16T16:05:04.938Z,97863.83
2018-07-16T16:07:36.672Z,97869.39
2018-07-16T16:10:08.624Z,97872.19
2018-07-16T16:12:41.009Z,97869.83
2018-07-16T16:15:13.002Z,97872.06
2018-07-16T16:17:44.557Z,97875.56
2018-07-16T16:20:16.494Z,97884.41
2018-07-16T16:22:48.548Z,97876.39
2018-07-16T16:25:20.273Z,97875.36
2018-07-16T16:27:51.908Z,97875.36
2018-07-16T16:30:24.115Z,97880.70
2018-07-16T16:32:55.884Z,97889.25
2018-07-16T16:35:27.807Z,97902.11
2018-07-16T16:37:59.705Z,97907.98
2018-07-16T16:40:31.598Z,97912.51
2018-07-16T16:43:03.744Z,97913.84
2018-07-16T16:45:35.605Z,97916.52
2018-07-16T16:48:07.323Z,97920.97
2018-07-16T16:50:39.185Z,97924.98
2018-07-16T16:53:10.829Z,97936.80
2018-07-16T16:55:42.461Z,97941.94
2018-07-16T16:58:14.266Z,97944.92
2018-07-16T17:00:46.205Z,97943.39
2018-07-16T17:03:17.945Z,97946.89
2018-07-16T17:05:49.914Z,97943.91
2018-07-16T17:08:21.509Z,97945.55
2018-07-16T17:10:53.439Z,97943.19
2018-07-16T17:13:26.290Z,97947.71
2018-07-16T17:15:58.262Z,97945.55
2018-07-16T17:18:30.056Z,97945.86
2018-07-16T17:21:02.036Z,97948.84
2018-07-16T17:23:33.533Z,97951.52
2018-07-16T17:26:05.417Z,97954.20
2018-07-16T17:28:37.009Z,97952.86
2018-07-16T17:31:09.056Z,97948.84
2018-07-16T17:33:40.582Z,97944.31
2018-07-16T17:36:12.531Z,97942.47
2018-07-16T17:38:45.372Z,97947.00
2018-07-16T17:41:17.102Z,97944.21
2018-07-16T17:43:48.918Z,97943.39
2018-07-16T17:46:20.674Z,97942.16
2018-07-16T17:48:52.576Z,97946.17
2018-07-16T17:51:24.164Z,97953.16
2018-07-16T17:53:55.861Z,97945.64
2018-07-16T17:56:28.123Z,97943.80
2018-07-16T17:59:00.180Z,97946.27
2018-07-16T18:01:31.746Z,97941.23
2018-07-16T18:04:03.582Z,97942.87
2018-07-16T18:06:35.627Z,97950.39
2018-07-16T18:09:08.587Z,97948.22
2018-07-16T18:11:40.558Z,97943.80
2018-07-16T18:14:13.069Z,97948.34
2018-07-16T18:16:45.091Z,97949.06
2018-07-16T18:19:17.396Z,97941.63
2018-07-16T18:21:49.381Z,97936.39
2018-07-16T18:24:21.822Z,97936.70
2018-07-16T18:26:53.634Z,97937.21
2018-07-16T18:29:25.421Z,97937.52
2018-07-16T18:31:57.231Z,97940.71
2018-07-16T18:34:28.952Z,97945.23
2018-07-16T18:37:00.871Z,97945.03
2018-07-16T18:39:32.500Z,97942.87
2018-07-16T18:42:04.419Z,97940.91
2018-07-16T18:44:36.354Z,97946.27
2018-07-16T18:47:08.094Z,97939.58
2018-07-16T18:49:39.914Z,97939.89
2018-07-16T18:52:11.728Z,97939.89
2018-07-16T18:54:43.670Z,97951.93
2018-07-16T18:57:15.353Z,97939.38
2018-07-16T18:59:47.558Z,97945.55
2018-07-16T19:02:19.866Z,97942.87
2018-07-16T19:04:52.490Z,97932.48
2018-07-16T19:07:24.677Z,97931.86
2018-07-16T19:09:56.294Z,97940.81
2018-07-16T19:12:28.173Z,97932.48
2018-07-16T19:15:00.473Z,97929.80
2018-07-16T19:17:32.265Z,97924.45
2018-07-16T19:20:04.291Z,97917.77
2018-07-16T19:22:36.111Z,97915.09
2018-07-16T19:25:08.281Z,97913.44
2018-07-16T19:27:40.452Z,97913.44
2018-07-16T19:30:12.377Z,97917.14
2018-07-16T19:32:44.051Z,97911.17
2018-07-16T19:35:16.015Z,97913.23
2018-07-16T19:37:47.901Z,97907.59
2018-07-16T19:40:19.787Z,97904.99
2018-07-16T19:42:51.454Z,97906.13
2018-07-16T19:45:23.196Z,97909.01
2018-07-16T19:47:55.026Z,97906.64
2018-07-16T19:50:26.739Z,97909.11
2018-07-16T19:52:58.573Z,97901.09
2018-07-16T19:55:30.083Z,97902.94
2018-07-16T19:58:01.878Z,97905.61
2018-07-16T20:00:33.791Z,97907.27
2018-07-16T20:03:05.674Z,97898.41
2018-07-16T20:05:37.612Z,97894.09
2018-07-16T20:08:09.535Z,97882.87
2018-07-16T20:10:41.780Z,97878.55
2018-07-16T20:13:14.954Z,97881.73
2018-07-16T20:15:48.721Z,97879.06
2018-07-16T20:18:21.772Z,97873.40
2018-07-16T20:20:59.808Z,97873.91
2018-07-16T20:23:32.976Z,97875.77
2018-07-16T20:26:04.564Z,97879.78
2018-07-16T20:28:36.439Z,97876.90
2018-07-16T20:31:08.169Z,97880.60
2018-07-16T20:33:40.147Z,97874.66
2018-07-16T20:36:11.961Z,97878.88
2018-07-16T20:38:43.474Z,97874.35
2018-07-16T20:41:15.150Z,97875.69
2018-07-16T20:43:46.990Z,97869.83
2018-07-16T20:46:18.494Z,97878.44
2018-07-16T20:48:50.322Z,97872.06
2018-07-16T20:51:21.738Z,97876.83
2018-07-16T20:53:53.648Z,97864.78
2018-07-16T20:56:25.327Z,97862.62
2018-07-16T20:58:57.018Z,97859.44
2018-07-16T21:01:28.747Z,97856.24
2018-07-16T21:04:00.869Z,97858.69
2018-07-16T21:06:32.574Z,97854.08
2018-07-16T21:09:04.479Z,97857.78
2018-07-16T21:11:35.927Z,97853.77
2018-07-16T21:14:07.507Z,97858.81
2018-07-16T21:16:39.577Z,97858.81
2018-07-16T21:19:11.429Z,97859.53
2018-07-16T21:21:43.143Z,97869.72
2018-07-16T21:24:14.894Z,97865.50
2018-07-16T21:26:46.336Z,97868.90
2018-07-16T21:29:18.355Z,97870.23
2018-07-16T21:31:50.092Z,97869.20
2018-07-16T21:34:21.957Z,97878.27
2018-07-16T21:36:53.717Z,97874.25
2018-07-16T21:39:25.679Z,97873.22
2018-07-16T21:41:57.379Z,97874.87
2018-07-16T21:44:29.497Z,97876.20
2018-07-16T21:47:01.245Z,97888.25
2018-07-16T21:49:33.074Z,97887.63
2018-07-16T21:52:04.798Z,97884.95
2018-07-16T21:54:36.646Z,97892.67
2018-07-16T21:57:08.830Z,97895.34
2018-07-16T21:59:40.328Z,97891.02
2018-07-16T22:02:11.997Z,97890.81
2018-07-16T22:04:44.193Z,97892.16
2018-07-16T22:07:15.772Z,97890.50
2018-07-16T22:09:47.588Z,97895.66
2018-07-16T22:12:19.343Z,97892.08
2018-07-16T22:14:51.412Z,97895.66
2018-07-16T22:17:23.599Z,97897.70
2018-07-16T22:19:55.298Z,97901.44
2018-07-16T22:22:27.070Z,97904.40
2018-07-16T22:24:59.039Z,97909.75
2018-07-16T22:27:30.937Z,97915.41
2018-07-16T22:30:02.785Z,97916.16
2018-07-16T22:32:34.587Z,97920.17
2018-07-16T22:35:06.335Z,97921.20
2018-07-16T22:39:01.876Z,97934.88
2018-07-16T22:41:33.580Z,97927.89
2018-07-16T22:44:05.347Z,97939.61
2018-07-16T22:46:37.322Z,97936.94
2018-07-16T22:49:08.717Z,97944.96
2018-07-16T22:51:40.527Z,97946.81
2018-07-16T22:54:12.362Z,97947.95
2018-07-16T22:56:44.517Z,97943.52
2018-07-16T22:59:16.281Z,97945.05
2018-07-16T23:01:48.160Z,97944.34
2018-07-16T23:04:19.781Z,97949.69
2018-07-16T23:06:51.602Z,97954.42
2018-07-16T23:09:23.351Z,97961.42
2018-07-16T23:11:55.445Z,97963.07
2018-07-16T23:14:27.931Z,97960.39
2018-07-16T23:16:59.717Z,97959.88
2018-07-16T23:19:31.429Z,97962.24
2018-07-16T23:22:03.081Z,97957.09
2018-07-16T23:24:37.008Z,97959.69
2018-07-16T23:27:08.743Z,97956.50
2018-07-16T23:29:40.671Z,97958.95
2018-07-16T23:32:12.526Z,97959.37
2018-07-16T23:34:44.166Z,97958.87
2018-07-16T23:37:16.135Z,97960.09
2018-07-16T23:39:47.893Z,97959.18
2018-07-16T23:42:19.805Z,97959.58
2018-07-16T23:44:51.545Z,97967.09
2018-07-16T23:47:23.692Z,97962.26
2018-07-16T23:49:55.357Z,97961.23
2018-07-16T23:52:27.073Z,97962.77
2018-07-16T23:54:58.878Z,97959.07
2018-07-16T23:57:31.802Z,97959.58
